Time;durP1;ratioP1;P1;durP2;ratioP2;P2;SDS_P1;SDS_P2;PMS_P1;PMS_P2;Temp;Humidity;BMP_temperature;BMP_pressure;BME280_temperature;BME280_humidity;BME280_pressure;Samples;Min_cycle;Max_cycle;Signal;HPM_P1;HPM_P2
2022/11/05 06:37:20;;;;;;;0.90;0.90;;;;;;;;;;5184283;23;20046;-81
2022/11/05 06:39:46;;;;;;;1.17;1.00;;;;;;;;;;4974122;28;20031;-77
2022/11/05 06:42:11;;;;;;;1.48;1.00;;;;;;;;;;4974291;28;20381;-84
2022/11/05 06:44:38;;;;;;;1.20;1.10;;;;;;;;;;4974513;28;20099;-77
2022/11/05 06:47:03;;;;;;;1.83;1.40;;;;;;;;;;4975980;28;20385;-76
2022/11/05 06:49:28;;;;;;;2.45;1.70;;;;;;;;;;4978085;28;20026;-78
2022/11/05 06:51:54;;;;;;;1.55;1.45;;;;;;;;;;4977890;28;20041;-77
2022/11/05 06:54:19;;;;;;;2.55;1.77;;;;;;;;;;4977997;28;20031;-81
2022/11/05 06:56:45;;;;;;;1.45;1.35;;;;;;;;;;4977946;28;20034;-81
2022/11/05 06:59:10;;;;;;;1.60;1.50;;;;;;;;;;4978069;28;20057;-77
2022/11/05 07:01:36;;;;;;;2.28;2.00;;;;;;;;;;4960422;28;20050;-77
2022/11/05 07:04:02;;;;;;;1.83;1.73;;;;;;;;;;4977757;28;20042;-77
2022/11/05 07:06:27;;;;;;;2.25;1.73;;;;;;;;;;4977807;28;20027;-79
2022/11/05 07:08:53;;;;;;;1.70;1.60;;;;;;;;;;4978071;28;20113;-78
2022/11/05 07:11:19;;;;;;;4.68;1.52;;;;;;;;;;4977279;28;20027;-77
2022/11/05 07:13:44;;;;;;;2.83;1.50;;;;;;;;;;4977652;28;20034;-83
2022/11/05 07:16:10;;;;;;;1.40;1.23;;;;;;;;;;4977944;28;20035;-82
2022/11/05 07:18:35;;;;;;;1.80;1.70;;;;;;;;;;4978022;28;20038;-76
2022/11/05 07:21:01;;;;;;;2.05;1.40;;;;;;;;;;4977490;28;20027;-80
2022/11/05 07:23:26;;;;;;;1.33;1.20;;;;;;;;;;4977702;28;20026;-77
2022/11/05 07:25:52;;;;;;;1.90;1.40;;;;;;;;;;4981471;28;20091;-77
2022/11/05 07:28:17;;;;;;;1.33;1.27;;;;;;;;;;4985287;28;20019;-85
2022/11/05 07:30:43;;;;;;;1.38;1.27;;;;;;;;;;4977404;28;20023;-79
2022/11/05 07:33:09;;;;;;;1.45;1.35;;;;;;;;;;4977743;28;20540;-81
2022/11/05 07:35:34;;;;;;;1.30;1.20;;;;;;;;;;4977712;28;20362;-92
2022/11/05 07:38:00;;;;;;;1.63;1.13;;;;;;;;;;4977436;28;20030;-86
2022/11/05 07:40:27;;;;;;;1.50;1.25;;;;;;;;;;4959934;28;20035;-84
2022/11/05 07:43:00;;;;;;;1.23;1.20;;;;;;;;;;4977557;28;20099;-86
2022/11/05 07:45:28;;;;;;;1.20;1.10;;;;;;;;;;4960039;28;20030;-83
2022/11/05 07:47:55;;;;;;;1.63;1.20;;;;;;;;;;4977569;28;20370;-84
2022/11/05 07:50:24;;;;;;;1.48;1.35;;;;;;;;;;4977334;28;20062;-85
2022/11/05 07:52:50;;;;;;;1.48;1.38;;;;;;;;;;4977268;28;20496;-81
2022/11/05 07:55:17;;;;;;;1.20;1.20;;;;;;;;;;4959830;28;20035;-90
2022/11/05 07:57:48;;;;;;;1.45;1.33;;;;;;;;;;4977402;28;20022;-89
2022/11/05 08:00:16;;;;;;;1.25;1.15;;;;;;;;;;4996570;28;20109;-87
2022/11/05 08:02:42;;;;;;;1.85;1.25;;;;;;;;;;4996509;28;20034;-88
2022/11/05 08:05:08;;;;;;;1.42;1.33;;;;;;;;;;4996568;28;20470;-89
2022/11/05 09:11:11;;;;;;;1.30;1.20;;;;;;;;;;5471901;23;20105;-85
2022/11/05 09:13:37;;;;;;;1.40;1.30;;;;;;;;;;4976261;28;20455;-85
2022/11/05 09:16:03;;;;;;;1.30;1.20;;;;;;;;;;4977012;28;20022;-85
2022/11/05 09:18:29;;;;;;;1.60;1.23;;;;;;;;;;4976510;28;20031;-82
2022/11/05 09:20:54;;;;;;;1.27;1.17;;;;;;;;;;4995430;28;20023;-83
2022/11/05 09:23:20;;;;;;;0.88;0.88;;;;;;;;;;4992686;28;20027;-83
2022/11/05 09:25:46;;;;;;;1.52;1.33;;;;;;;;;;4991672;28;20031;-84
2022/11/05 09:28:14;;;;;;;1.10;1.10;;;;;;;;;;4992854;28;20074;-87
2022/11/05 09:30:41;;;;;;;1.25;1.10;;;;;;;;;;4995292;28;20041;-85
2022/11/05 09:33:07;;;;;;;1.00;1.00;;;;;;;;;;4993568;28;20031;-88
2022/11/05 09:35:33;;;;;;;1.30;1.20;;;;;;;;;;4979753;28;20448;-86
2022/11/05 09:37:58;;;;;;;1.20;1.10;;;;;;;;;;4974911;28;20034;-84
2022/11/05 09:40:25;;;;;;;1.50;1.25;;;;;;;;;;4992833;28;20039;-84
2022/11/05 09:42:53;;;;;;;1.17;1.08;;;;;;;;;;4992689;28;20054;-87
2022/11/05 09:45:22;;;;;;;0.90;0.90;;;;;;;;;;4994713;28;20029;-83
2022/11/05 09:48:11;;;;;;;1.10;1.10;;;;;;;;;;4993349;28;20057;-84
2022/11/05 09:50:41;;;;;;;1.20;1.10;;;;;;;;;;4995028;28;20022;-86
2022/11/05 09:53:12;;;;;;;0.93;0.90;;;;;;;;;;4978174;28;20051;-85
2022/11/05 09:55:41;;;;;;;1.30;1.20;;;;;;;;;;4992682;28;20019;-86
2022/11/05 09:58:26;;;;;;;0.90;0.90;;;;;;;;;;4997318;28;20034;-86
2022/11/05 10:00:52;;;;;;;1.10;1.00;;;;;;;;;;5009442;28;20074;-85
2022/11/05 10:03:25;;;;;;;1.10;1.00;;;;;;;;;;5014004;28;20037;-86
2022/11/05 10:05:52;;;;;;;1.10;1.00;;;;;;;;;;5015529;28;20098;-82
2022/11/05 10:08:29;;;;;;;1.13;1.00;;;;;;;;;;5014406;28;20046;-83
2022/11/05 10:11:01;;;;;;;0.80;0.80;;;;;;;;;;5012214;28;20038;-84
2022/11/05 10:13:55;;;;;;;1.00;0.85;;;;;;;;;;5004351;28;20022;-85
2022/11/05 10:16:31;;;;;;;1.20;1.10;;;;;;;;;;4996548;28;20025;-86
2022/11/05 10:19:13;;;;;;;1.35;1.10;;;;;;;;;;4997097;28;20501;-84
2022/11/05 10:21:39;;;;;;;144.98;11.30;;;;;;;;;;4996214;28;20486;-79
2022/11/05 10:24:16;;;;;;;0.95;0.90;;;;;;;;;;5000563;28;20038;-79
2022/11/05 10:26:45;;;;;;;2.03;1.23;;;;;;;;;;4999381;28;20130;-80
2022/11/05 10:29:14;;;;;;;1.67;1.10;;;;;;;;;;4999219;28;20377;-81
2022/11/05 10:31:41;;;;;;;1.02;1.00;;;;;;;;;;4999975;28;20045;-85
2022/11/05 10:34:07;;;;;;;3.53;1.13;;;;;;;;;;5002671;28;20493;-87
2022/11/05 10:36:35;;;;;;;1.05;1.05;;;;;;;;;;5009290;28;20023;-91
2022/11/05 10:39:10;;;;;;;0.88;0.88;;;;;;;;;;5004137;28;20033;-91
2022/11/05 10:41:44;;;;;;;0.80;0.80;;;;;;;;;;4997712;28;20416;-77
2022/11/05 10:44:25;;;;;;;0.75;0.75;;;;;;;;;;4998238;28;20101;-77
2022/11/05 10:47:09;;;;;;;0.90;0.90;;;;;;;;;;4997831;28;20027;-79
2022/11/05 10:49:40;;;;;;;0.80;0.80;;;;;;;;;;4980084;28;20366;-80
2022/11/05 10:52:30;;;;;;;0.90;0.90;;;;;;;;;;4997473;28;20041;-88
2022/11/05 10:54:59;;;;;;;0.65;0.65;;;;;;;;;;4998019;28;20093;-90
2022/11/05 10:57:37;;;;;;;1.40;1.00;;;;;;;;;;5000629;28;20466;-90
2022/11/05 11:00:15;;;;;;;1.88;1.15;;;;;;;;;;4997688;28;20050;-81
2022/11/05 11:03:02;;;;;;;1.42;0.75;;;;;;;;;;4997462;28;20050;-83
2022/11/05 11:05:34;;;;;;;1.52;1.42;;;;;;;;;;4997421;28;20023;-80
2022/11/05 11:08:10;;;;;;;2.30;0.70;;;;;;;;;;4979765;28;20022;-81
2022/11/05 11:10:41;;;;;;;1.25;0.70;;;;;;;;;;4997188;28;20043;-81
2022/11/05 11:13:21;;;;;;;0.70;0.70;;;;;;;;;;4979827;28;20370;-84
2022/11/05 11:15:49;;;;;;;0.70;0.70;;;;;;;;;;4992719;28;20024;-80
2022/11/05 11:18:37;;;;;;;0.73;0.73;;;;;;;;;;4977916;28;20470;-80
2022/11/05 11:21:13;;;;;;;1.00;1.00;;;;;;;;;;4977699;28;20037;-79
2022/11/05 11:23:40;;;;;;;0.90;0.90;;;;;;;;;;4960418;28;20385;-80
2022/11/05 11:26:07;;;;;;;0.80;0.80;;;;;;;;;;4978360;28;20027;-79
2022/11/05 11:28:39;;;;;;;0.80;0.80;;;;;;;;;;4978220;28;20055;-83
2022/11/05 11:31:15;;;;;;;0.70;0.70;;;;;;;;;;4977600;28;20465;-81
2022/11/05 11:33:45;;;;;;;0.75;0.75;;;;;;;;;;4976299;28;20486;-81
2022/11/05 11:36:11;;;;;;;1.50;1.40;;;;;;;;;;4977505;28;20370;-82
2022/11/05 11:38:38;;;;;;;1.08;1.00;;;;;;;;;;4977484;28;20458;-81
2022/11/05 11:41:23;;;;;;;0.80;0.80;;;;;;;;;;4977194;28;20482;-82
2022/11/05 11:43:54;;;;;;;0.70;0.70;;;;;;;;;;4977356;28;20474;-82
2022/11/05 11:46:20;;;;;;;0.80;0.80;;;;;;;;;;4977402;28;20125;-81
2022/11/05 11:48:47;;;;;;;2.47;0.90;;;;;;;;;;4977162;28;20414;-86
2022/11/05 11:51:43;;;;;;;0.77;0.77;;;;;;;;;;4976915;28;20030;-80
2022/11/05 11:54:20;;;;;;;0.85;0.85;;;;;;;;;;4975551;28;20490;-78
2022/11/05 11:56:47;;;;;;;1.35;0.85;;;;;;;;;;4977170;28;20049;-77
2022/11/05 11:59:27;;;;;;;0.85;0.85;;;;;;;;;;4977190;28;20039;-78
2022/11/05 12:02:30;;;;;;;1.17;1.00;;;;;;;;;;4976985;28;20398;-78
2022/11/05 12:04:55;;;;;;;1.20;1.00;;;;;;;;;;4976980;28;20027;-76
2022/11/05 12:07:51;;;;;;;0.90;0.90;;;;;;;;;;4976930;28;20046;-76
2022/11/05 12:10:42;;;;;;;0.70;0.70;;;;;;;;;;4976580;28;20525;-78
2022/11/05 12:13:19;;;;;;;1.58;0.88;;;;;;;;;;4976134;28;20038;-77
2022/11/05 12:15:51;;;;;;;0.70;0.70;;;;;;;;;;4977169;28;20032;-79
2022/11/05 12:18:45;;;;;;;0.70;0.70;;;;;;;;;;4976550;28;20062;-86
2022/11/05 12:21:57;;;;;;;0.57;0.57;;;;;;;;;;4964057;28;20035;-84
2022/11/05 12:24:43;;;;;;;2.58;0.73;;;;;;;;;;4995677;28;20100;-85
2022/11/05 12:27:25;;;;;;;0.57;0.57;;;;;;;;;;4996030;28;20434;-85
2022/11/05 12:30:00;;;;;;;0.60;0.60;;;;;;;;;;4995983;28;20030;-84
2022/11/05 12:32:34;;;;;;;0.80;0.80;;;;;;;;;;4995777;28;20049;-84
2022/11/05 12:35:15;;;;;;;0.60;0.60;;;;;;;;;;4995793;28;20027;-84
2022/11/05 12:37:59;;;;;;;0.55;0.55;;;;;;;;;;4995823;28;20022;-84
2022/11/05 12:41:01;;;;;;;0.88;0.88;;;;;;;;;;4995869;28;20528;-84
2022/11/05 12:44:11;;;;;;;0.95;0.95;;;;;;;;;;4978048;28;20026;-84
2022/11/05 12:46:42;;;;;;;1.13;1.00;;;;;;;;;;4996217;28;20474;-83
2022/11/05 12:49:45;;;;;;;1.05;0.70;;;;;;;;;;4995786;28;20101;-89
2022/11/05 12:52:22;;;;;;;0.80;0.60;;;;;;;;;;4995592;28;20037;-85
2022/11/05 12:55:00;;;;;;;0.70;0.70;;;;;;;;;;4978454;28;20034;-85
2022/11/05 12:57:29;;;;;;;0.60;0.60;;;;;;;;;;4995609;28;20109;-85
2022/11/05 13:00:04;;;;;;;0.75;0.75;;;;;;;;;;4995681;28;20026;-84
2022/11/05 13:02:42;;;;;;;0.60;0.60;;;;;;;;;;4995885;28;20022;-84
2022/11/05 13:05:34;;;;;;;1.77;1.00;;;;;;;;;;4995536;28;20477;-83
2022/11/05 13:08:03;;;;;;;0.73;0.73;;;;;;;;;;4995555;28;20030;-84
2022/11/05 13:10:58;;;;;;;0.60;0.60;;;;;;;;;;4977508;28;20045;-84
2022/11/05 13:13:37;;;;;;;0.80;0.80;;;;;;;;;;4993747;28;20185;-88
2022/11/05 13:16:15;;;;;;;0.70;0.70;;;;;;;;;;4995436;28;20034;-89
2022/11/05 13:18:49;;;;;;;0.70;0.70;;;;;;;;;;4977711;28;20505;-86
2022/11/05 13:21:17;;;;;;;3.40;2.90;;;;;;;;;;4995574;28;20022;-86
2022/11/05 13:24:17;;;;;;;1.30;0.90;;;;;;;;;;4995347;28;20022;-87
2022/11/05 13:26:49;;;;;;;0.70;0.70;;;;;;;;;;4995392;28;20109;-85
2022/11/05 13:29:21;;;;;;;0.70;0.70;;;;;;;;;;4992521;28;20520;-88
2022/11/05 13:31:52;;;;;;;0.88;0.88;;;;;;;;;;4987128;28;20045;-88
2022/11/05 13:34:17;;;;;;;1.02;1.02;;;;;;;;;;4996691;28;20018;-85
2022/11/05 13:39:37;;;;;;;5.75;3.30;;;;;;;;;;4994956;28;20553;-87
2022/11/05 13:42:40;;;;;;;4.45;2.50;;;;;;;;;;4976142;28;20093;-84
2022/11/05 13:45:53;;;;;;;5.15;2.63;;;;;;;;;;4962089;28;20039;-85
2022/11/05 13:48:49;;;;;;;2.00;1.67;;;;;;;;;;4900281;29;20091;-84
2022/11/05 13:51:27;;;;;;;2.90;1.75;;;;;;;;;;4994700;28;20152;-84
2022/11/05 13:54:04;;;;;;;2.00;1.17;;;;;;;;;;4994474;28;20026;-85
2022/11/05 13:56:47;;;;;;;1.40;0.80;;;;;;;;;;4995112;28;20030;-87
2022/11/05 13:59:21;;;;;;;0.85;0.80;;;;;;;;;;4996119;28;20034;-88
2022/11/05 14:02:16;;;;;;;1.35;0.80;;;;;;;;;;4982428;28;20022;-91
2022/11/05 14:05:01;;;;;;;0.85;0.75;;;;;;;;;;4974959;28;20398;-84
2022/11/05 14:07:35;;;;;;;0.85;0.80;;;;;;;;;;4998603;28;20030;-84
2022/11/05 14:10:13;;;;;;;0.73;0.70;;;;;;;;;;4998862;28;20037;-85
2022/11/05 14:12:39;;;;;;;0.75;0.73;;;;;;;;;;4997007;28;20428;-92
2022/11/05 14:15:14;;;;;;;0.70;0.70;;;;;;;;;;4995440;28;20054;-86
2022/11/05 14:18:34;;;;;;;1.00;0.77;;;;;;;;;;4994288;28;20026;-85
2022/11/05 14:21:01;;;;;;;0.80;0.80;;;;;;;;;;4939697;28;20493;-82
2022/11/05 14:23:37;;;;;;;1.10;0.70;;;;;;;;;;4977667;28;20041;-81
2022/11/05 14:26:14;;;;;;;2.50;0.80;;;;;;;;;;4994323;28;20033;-84
2022/11/05 14:28:43;;;;;;;1.30;1.20;;;;;;;;;;4976895;28;20362;-80
2022/11/05 14:31:17;;;;;;;0.93;0.82;;;;;;;;;;4994236;28;20027;-84
2022/11/05 14:33:53;;;;;;;0.80;0.80;;;;;;;;;;4994278;28;20075;-81
2022/11/05 14:36:26;;;;;;;0.90;0.90;;;;;;;;;;4988330;28;20038;-80
2022/11/05 14:38:55;;;;;;;0.88;0.88;;;;;;;;;;4994094;28;20026;-85
2022/11/05 14:41:21;;;;;;;0.80;0.80;;;;;;;;;;4993870;28;20049;-81
2022/11/05 14:44:06;;;;;;;0.77;0.77;;;;;;;;;;4994030;28;20418;-81
2022/11/05 14:46:45;;;;;;;2.67;0.63;;;;;;;;;;4994054;28;20404;-84
2022/11/05 14:49:26;;;;;;;0.80;0.80;;;;;;;;;;4994339;28;20027;-79
2022/11/05 14:51:54;;;;;;;0.70;0.70;;;;;;;;;;4976774;28;20034;-82
2022/11/05 14:54:40;;;;;;;0.82;0.82;;;;;;;;;;4993888;28;20026;-83
2022/11/05 14:57:06;;;;;;;0.90;0.90;;;;;;;;;;4993390;28;20074;-82
2022/11/05 14:59:51;;;;;;;1.00;1.00;;;;;;;;;;4994057;28;20069;-83
2022/11/05 15:02:21;;;;;;;0.70;0.70;;;;;;;;;;4954895;28;20121;-84
2022/11/05 15:04:49;;;;;;;0.90;0.90;;;;;;;;;;4955190;29;20489;-83
2022/11/05 15:07:20;;;;;;;3.70;0.80;;;;;;;;;;4954508;28;20533;-83
2022/11/05 15:09:52;;;;;;;2.13;1.00;;;;;;;;;;4941633;29;20028;-84
2022/11/05 15:12:31;;;;;;;0.75;0.75;;;;;;;;;;4958382;28;20534;-85
2022/11/05 15:15:03;;;;;;;0.80;0.80;;;;;;;;;;4959397;29;20102;-86
2022/11/05 15:17:39;;;;;;;0.70;0.70;;;;;;;;;;4941802;29;20390;-86
2022/11/05 15:20:20;;;;;;;0.90;0.90;;;;;;;;;;4958692;29;20058;-85
2022/11/05 15:22:51;;;;;;;1.20;1.10;;;;;;;;;;4941367;29;20394;-85
2022/11/05 15:25:46;;;;;;;1.83;1.30;;;;;;;;;;4958584;29;20024;-84
2022/11/05 15:28:33;;;;;;;1.20;1.00;;;;;;;;;;4958556;29;20023;-88
2022/11/05 15:31:11;;;;;;;1.20;1.10;;;;;;;;;;4969967;28;20050;-85
2022/11/05 15:33:38;;;;;;;1.58;0.98;;;;;;;;;;4977060;28;20030;-81
2022/11/05 15:36:16;;;;;;;1.20;1.10;;;;;;;;;;4987429;28;20488;-85
2022/11/05 15:38:42;;;;;;;1.48;1.00;;;;;;;;;;4996714;28;20038;-88
2022/11/05 15:41:17;;;;;;;0.80;0.80;;;;;;;;;;4996857;28;20049;-86
2022/11/05 15:43:47;;;;;;;1.35;0.80;;;;;;;;;;4997057;28;20117;-85
2022/11/05 15:46:16;;;;;;;1.58;1.00;;;;;;;;;;4979328;28;20027;-86
2022/11/05 15:48:48;;;;;;;0.80;0.80;;;;;;;;;;4996809;28;20031;-86
2022/11/05 15:51:14;;;;;;;0.80;0.80;;;;;;;;;;4996767;28;20382;-85
2022/11/05 15:53:42;;;;;;;0.90;0.90;;;;;;;;;;4996728;28;20045;-87
2022/11/05 15:56:19;;;;;;;0.95;0.82;;;;;;;;;;4996595;28;20033;-84
2022/11/05 15:58:51;;;;;;;0.80;0.80;;;;;;;;;;4996718;28;20029;-78
2022/11/05 16:01:28;;;;;;;0.90;0.90;;;;;;;;;;4996229;28;20034;-86
2022/11/05 16:03:58;;;;;;;1.20;1.10;;;;;;;;;;4996424;28;20029;-82
2022/11/05 16:06:40;;;;;;;0.80;0.80;;;;;;;;;;4996444;28;20038;-83
2022/11/05 16:09:06;;;;;;;0.73;0.73;;;;;;;;;;4996451;28;20100;-83
2022/11/05 16:11:31;;;;;;;4.68;4.10;;;;;;;;;;4996163;28;20054;-83
2022/11/05 16:14:15;;;;;;;31.65;15.45;;;;;;;;;;4978592;28;20026;-84
2022/11/05 16:16:42;;;;;;;1.30;1.20;;;;;;;;;;4996627;28;20054;-84
2022/11/05 16:19:34;;;;;;;1.77;1.55;;;;;;;;;;4995443;28;20027;-84
2022/11/05 16:22:02;;;;;;;2.60;2.40;;;;;;;;;;4996089;28;20022;-84
2022/11/05 16:24:28;;;;;;;12.88;9.30;;;;;;;;;;4995946;28;20089;-83
2022/11/05 16:26:54;;;;;;;50.13;25.13;;;;;;;;;;4996155;28;20026;-83
2022/11/05 16:29:26;;;;;;;79.43;32.00;;;;;;;;;;4996067;28;20085;-84
2022/11/05 16:31:53;;;;;;;1.15;0.90;;;;;;;;;;4995760;28;20030;-83
2022/11/05 16:34:45;;;;;;;1.98;1.88;;;;;;;;;;4996024;28;20053;-83
2022/11/05 16:37:13;;;;;;;1.70;1.60;;;;;;;;;;4996056;28;20022;-83
2022/11/05 16:39:39;;;;;;;1.02;1.02;;;;;;;;;;4996015;28;20027;-83
2022/11/05 16:42:26;;;;;;;1.10;1.00;;;;;;;;;;4995549;28;20085;-83
2022/11/05 16:44:53;;;;;;;1.60;1.50;;;;;;;;;;4995919;28;20478;-83
2022/11/05 16:47:20;;;;;;;5.75;4.32;;;;;;;;;;4978015;28;20473;-83
2022/11/05 16:49:49;;;;;;;2.53;1.95;;;;;;;;;;4978185;28;20026;-83
2022/11/05 16:52:15;;;;;;;3.92;3.53;;;;;;;;;;4995573;28;20517;-82
2022/11/05 16:54:41;;;;;;;10.85;7.57;;;;;;;;;;4995966;28;20066;-81
2022/11/05 16:57:14;;;;;;;10.32;6.80;;;;;;;;;;4995631;28;20030;-83
2022/11/05 16:59:40;;;;;;;10.63;8.88;;;;;;;;;;4995394;28;20101;-83
2022/11/05 17:02:09;;;;;;;7.68;6.90;;;;;;;;;;4995495;28;20037;-83
2022/11/05 17:04:35;;;;;;;1.60;1.33;;;;;;;;;;4995395;28;20049;-83
2022/11/05 17:07:00;;;;;;;1.10;1.10;;;;;;;;;;4978138;28;20022;-83
2022/11/05 17:09:26;;;;;;;1.23;1.13;;;;;;;;;;4995349;28;20033;-84
2022/11/05 17:11:51;;;;;;;1.95;1.05;;;;;;;;;;4995458;28;20229;-83
2022/11/05 17:14:16;;;;;;;0.90;0.90;;;;;;;;;;4995128;28;20397;-84
2022/11/05 17:16:42;;;;;;;2.35;1.30;;;;;;;;;;4995600;28;20085;-88
2022/11/05 17:19:15;;;;;;;1.50;0.90;;;;;;;;;;4995561;28;20022;-84
2022/11/05 17:21:41;;;;;;;3.08;1.60;;;;;;;;;;4995245;28;20027;-86
2022/11/05 17:24:07;;;;;;;1.40;1.10;;;;;;;;;;4995203;28;20081;-84
2022/11/05 17:26:32;;;;;;;1.30;1.20;;;;;;;;;;4995041;28;20030;-86
2022/11/05 17:28:58;;;;;;;1.85;1.67;;;;;;;;;;4994991;28;20413;-84
2022/11/05 17:31:23;;;;;;;1.30;1.20;;;;;;;;;;4994870;28;20428;-84
2022/11/05 17:33:49;;;;;;;1.00;1.00;;;;;;;;;;4977501;28;20495;-83
2022/11/05 17:36:15;;;;;;;2.55;1.27;;;;;;;;;;4995166;28;20019;-84
2022/11/05 17:38:40;;;;;;;1.80;1.45;;;;;;;;;;4995362;28;20469;-84
2022/11/05 17:41:18;;;;;;;2.38;1.30;;;;;;;;;;4995019;28;20030;-83
2022/11/05 17:43:43;;;;;;;2.38;1.10;;;;;;;;;;4994821;28;20026;-83
2022/11/05 17:46:11;;;;;;;0.77;0.73;;;;;;;;;;4977224;28;20156;-83
2022/11/05 17:48:37;;;;;;;1.75;1.05;;;;;;;;;;4995067;28;20088;-83
2022/11/05 17:51:03;;;;;;;1.42;0.98;;;;;;;;;;4994919;28;20030;-86
2022/11/05 17:53:29;;;;;;;3.10;1.00;;;;;;;;;;4995102;28;20477;-87
2022/11/05 17:55:55;;;;;;;1.48;1.02;;;;;;;;;;4995009;28;20033;-85
2022/11/05 17:58:20;;;;;;;1.40;1.00;;;;;;;;;;4995137;28;20401;-83
2022/11/05 18:00:47;;;;;;;6.63;1.85;;;;;;;;;;4994257;28;20027;-84
2022/11/05 18:03:13;;;;;;;3.28;1.10;;;;;;;;;;4994470;28;20081;-85
2022/11/05 18:05:39;;;;;;;2.58;1.20;;;;;;;;;;4994974;28;20030;-90
2022/11/05 18:08:06;;;;;;;1.35;1.05;;;;;;;;;;4977342;28;20037;-89
2022/11/05 18:10:31;;;;;;;3.97;1.30;;;;;;;;;;4981445;28;20014;-93
2022/11/05 18:13:06;;;;;;;3.88;1.50;;;;;;;;;;4983143;28;20069;-96
2022/11/05 18:15:42;;;;;;;1.40;1.10;;;;;;;;;;4982507;28;20027;-96
2022/11/05 18:18:11;;;;;;;1.38;0.82;;;;;;;;;;4999221;23;20567;-93
2022/11/05 18:20:37;;;;;;;0.80;0.80;;;;;;;;;;4959187;28;20537;-92
2022/11/05 18:23:02;;;;;;;0.90;0.77;;;;;;;;;;4958138;28;20028;-89
2022/11/05 18:25:28;;;;;;;0.95;0.93;;;;;;;;;;4961718;29;20471;-95
2022/11/05 18:27:53;;;;;;;0.80;0.80;;;;;;;;;;4961804;28;20542;-87
2022/11/05 18:30:19;;;;;;;1.13;1.00;;;;;;;;;;4956609;29;20381;-88
2022/11/05 18:32:44;;;;;;;1.55;0.90;;;;;;;;;;4955865;29;20474;-93
2022/11/05 18:35:12;;;;;;;1.15;0.80;;;;;;;;;;4955339;29;20098;-90
2022/11/05 18:37:38;;;;;;;2.67;1.02;;;;;;;;;;4955540;29;20023;-81
2022/11/05 18:40:04;;;;;;;3.08;1.15;;;;;;;;;;4954780;29;20078;-84
2022/11/05 18:42:29;;;;;;;1.75;1.20;;;;;;;;;;4957440;28;20062;-87
2022/11/05 18:44:55;;;;;;;0.85;0.80;;;;;;;;;;4958620;29;20024;-94
2022/11/05 18:47:20;;;;;;;3.92;0.85;;;;;;;;;;4958953;29;20066;-94
2022/11/05 18:49:46;;;;;;;1.77;0.77;;;;;;;;;;4959165;29;20027;-93
2022/11/05 18:52:12;;;;;;;2.95;1.00;;;;;;;;;;4958763;28;20906;-87
2022/11/05 18:54:37;;;;;;;2.05;1.10;;;;;;;;;;4958885;29;20034;-91
2022/11/05 18:57:03;;;;;;;0.77;0.75;;;;;;;;;;4958506;29;20042;-88
2022/11/05 18:59:28;;;;;;;0.95;0.70;;;;;;;;;;4959973;29;20031;-93
2022/11/05 19:01:54;;;;;;;1.40;0.90;;;;;;;;;;4960126;28;20030;-93
2022/11/05 19:04:19;;;;;;;0.80;0.63;;;;;;;;;;4964071;28;20123;-90
2022/11/05 19:06:45;;;;;;;0.80;0.80;;;;;;;;;;4977278;28;20035;-89
2022/11/05 19:09:10;;;;;;;0.90;0.90;;;;;;;;;;4978894;28;20462;-90
2022/11/05 19:11:37;;;;;;;1.00;0.80;;;;;;;;;;4976952;28;20090;-89
2022/11/05 19:14:04;;;;;;;1.05;0.80;;;;;;;;;;4981636;28;20054;-89
2022/11/05 19:16:30;;;;;;;0.68;0.68;;;;;;;;;;4979400;28;20061;-89
2022/11/05 19:19:17;;;;;;;0.80;0.80;;;;;;;;;;4994260;28;20050;-90
2022/11/05 19:21:43;;;;;;;0.75;0.70;;;;;;;;;;4997487;28;20417;-83
2022/11/05 19:24:08;;;;;;;1.17;0.80;;;;;;;;;;4998896;28;20026;-89
2022/11/05 19:26:34;;;;;;;1.08;0.95;;;;;;;;;;4997268;28;20026;-93
2022/11/05 19:29:01;;;;;;;0.80;0.80;;;;;;;;;;4980417;28;20054;-90
2022/11/05 19:31:27;;;;;;;0.70;0.70;;;;;;;;;;4979969;28;20129;-90
2022/11/05 19:33:53;;;;;;;0.70;0.70;;;;;;;;;;4979824;28;20022;-93
2022/11/05 19:36:20;;;;;;;0.80;0.80;;;;;;;;;;4980430;28;20029;-92
2022/11/05 19:38:53;;;;;;;0.80;0.80;;;;;;;;;;4980409;28;20118;-92
2022/11/05 19:41:20;;;;;;;0.90;0.90;;;;;;;;;;4980415;28;20033;-92
2022/11/05 19:43:45;;;;;;;0.80;0.80;;;;;;;;;;4980442;28;20034;-92
2022/11/05 19:46:14;;;;;;;1.85;0.90;;;;;;;;;;4980668;28;20084;-94
2022/11/05 19:48:41;;;;;;;1.00;0.90;;;;;;;;;;4980369;28;20589;-88
2022/11/05 19:51:08;;;;;;;1.40;0.82;;;;;;;;;;4979384;28;20037;-89
2022/11/05 19:53:36;;;;;;;1.08;1.00;;;;;;;;;;4996512;28;20085;-84
2022/11/05 19:56:14;;;;;;;0.80;0.80;;;;;;;;;;4997289;28;20027;-90
2022/11/05 19:58:40;;;;;;;0.82;0.75;;;;;;;;;;4997381;28;20080;-82
2022/11/05 20:01:05;;;;;;;1.38;0.90;;;;;;;;;;4998041;28;20034;-90
2022/11/05 20:03:31;;;;;;;0.70;0.70;;;;;;;;;;4997476;28;20389;-86
2022/11/05 20:06:01;;;;;;;0.70;0.70;;;;;;;;;;4977473;28;20378;-84
2022/11/05 20:08:27;;;;;;;1.38;0.70;;;;;;;;;;4977165;28;20031;-84
2022/11/05 20:10:53;;;;;;;0.82;0.80;;;;;;;;;;4977229;28;20023;-83
2022/11/05 20:13:19;;;;;;;1.75;0.90;;;;;;;;;;4977098;28;20027;-82
2022/11/05 20:15:45;;;;;;;0.77;0.77;;;;;;;;;;4977177;28;20023;-82
2022/11/05 20:18:11;;;;;;;0.80;0.80;;;;;;;;;;4977075;28;20528;-82
2022/11/05 20:20:36;;;;;;;0.85;0.85;;;;;;;;;;4977168;28;20031;-81
2022/11/05 20:23:01;;;;;;;0.88;0.88;;;;;;;;;;4976853;28;20367;-82
2022/11/05 20:25:27;;;;;;;0.80;0.80;;;;;;;;;;4989984;28;20053;-87
2022/11/05 20:27:52;;;;;;;0.90;0.90;;;;;;;;;;4978868;28;20178;-87
2022/11/05 20:30:18;;;;;;;0.73;0.73;;;;;;;;;;4978988;28;20496;-89
2022/11/05 20:32:44;;;;;;;1.23;0.95;;;;;;;;;;4978691;28;20026;-89
2022/11/05 20:35:10;;;;;;;0.70;0.70;;;;;;;;;;4979407;28;20026;-90
2022/11/05 20:38:05;;;;;;;0.80;0.80;;;;;;;;;;4998090;28;20485;-90
2022/11/05 20:40:30;;;;;;;0.75;0.70;;;;;;;;;;4980877;28;20417;-89
2022/11/05 20:42:55;;;;;;;1.02;0.90;;;;;;;;;;4997879;28;20030;-89
2022/11/05 20:45:21;;;;;;;1.67;0.80;;;;;;;;;;4978617;28;20113;-89
2022/11/05 20:47:46;;;;;;;0.80;0.80;;;;;;;;;;4996165;28;20469;-89
2022/11/05 20:50:12;;;;;;;0.90;0.90;;;;;;;;;;4978859;28;20030;-90
2022/11/05 20:52:37;;;;;;;2.05;0.90;;;;;;;;;;4996075;28;20044;-89
2022/11/05 20:55:04;;;;;;;2.33;1.58;;;;;;;;;;4978406;28;20117;-89
2022/11/05 20:57:29;;;;;;;1.08;0.98;;;;;;;;;;4978831;28;20026;-89
2022/11/05 20:59:54;;;;;;;1.95;1.58;;;;;;;;;;4996324;28;20042;-89
2022/11/05 21:02:20;;;;;;;2.90;1.40;;;;;;;;;;4978739;28;20026;-90
2022/11/05 21:04:46;;;;;;;2.05;0.88;;;;;;;;;;4978318;28;20112;-90
2022/11/05 21:07:12;;;;;;;0.70;0.70;;;;;;;;;;4978217;28;20026;-87
2022/11/05 21:09:37;;;;;;;0.80;0.80;;;;;;;;;;4995427;28;20113;-86
2022/11/05 21:12:09;;;;;;;0.80;0.80;;;;;;;;;;4995010;28;20022;-86
2022/11/05 21:14:34;;;;;;;0.70;0.70;;;;;;;;;;4995536;28;20409;-86
2022/11/05 21:17:00;;;;;;;1.08;0.90;;;;;;;;;;4995355;28;20022;-86
2022/11/05 21:19:25;;;;;;;0.73;0.73;;;;;;;;;;4995038;28;20057;-85
2022/11/05 21:21:51;;;;;;;0.80;0.80;;;;;;;;;;4995059;28;20054;-86
2022/11/05 21:24:16;;;;;;;1.23;0.90;;;;;;;;;;4995303;28;20538;-86
2022/11/05 21:26:41;;;;;;;0.68;0.68;;;;;;;;;;4977727;28;20026;-86
2022/11/05 21:29:07;;;;;;;0.82;0.82;;;;;;;;;;4995937;28;20023;-87
2022/11/05 21:31:36;;;;;;;0.80;0.80;;;;;;;;;;4994788;28;20026;-86
2022/11/05 21:34:02;;;;;;;0.80;0.80;;;;;;;;;;4995590;28;20492;-87
2022/11/05 21:36:27;;;;;;;0.90;0.90;;;;;;;;;;4994691;28;20027;-87
2022/11/05 21:38:53;;;;;;;1.42;1.33;;;;;;;;;;4994889;28;20363;-86
2022/11/05 21:41:18;;;;;;;1.50;1.40;;;;;;;;;;4977495;28;20042;-86
2022/11/05 21:43:43;;;;;;;1.67;1.40;;;;;;;;;;4994921;28;20019;-86
2022/11/05 21:46:12;;;;;;;1.58;0.90;;;;;;;;;;4994787;28;20492;-86
2022/11/05 21:48:37;;;;;;;1.00;0.90;;;;;;;;;;4994620;28;20080;-86
2022/11/05 22:02:06;;;;;;;4.68;2.78;;;;;;;;;;4995044;28;20049;-86
2022/11/05 22:04:43;;;;;;;3.97;2.30;;;;;;;;;;4994725;28;20026;-86
2022/11/05 22:07:11;;;;;;;2.22;1.73;;;;;;;;;;4976851;28;20035;-87
2022/11/05 22:09:36;;;;;;;2.70;1.90;;;;;;;;;;4994651;28;20484;-87
2022/11/05 22:12:02;;;;;;;3.25;2.20;;;;;;;;;;4994450;28;20034;-88
2022/11/05 22:14:28;;;;;;;1.30;1.20;;;;;;;;;;4994399;28;20022;-87
2022/11/05 22:16:53;;;;;;;1.80;1.30;;;;;;;;;;4993786;28;20038;-87
2022/11/05 22:19:19;;;;;;;1.90;1.70;;;;;;;;;;4994219;28;20073;-87
2022/11/05 22:21:45;;;;;;;1.80;1.50;;;;;;;;;;4994624;28;20030;-87
2022/11/05 22:24:11;;;;;;;2.65;1.50;;;;;;;;;;4994253;28;20082;-87
2022/11/05 22:26:37;;;;;;;1.75;1.25;;;;;;;;;;4994573;28;20069;-86
2022/11/05 22:29:03;;;;;;;3.85;1.90;;;;;;;;;;4994593;28;20027;-88
2022/11/05 22:31:29;;;;;;;1.50;1.00;;;;;;;;;;4994098;28;20029;-91
2022/11/05 22:33:54;;;;;;;1.52;1.40;;;;;;;;;;4994744;28;20034;-88
2022/11/05 22:36:20;;;;;;;4.70;2.50;;;;;;;;;;4994404;28;20058;-87
2022/11/05 22:38:45;;;;;;;2.67;1.63;;;;;;;;;;4994070;28;20030;-87
2022/11/05 22:41:18;;;;;;;2.95;1.52;;;;;;;;;;4994166;28;20138;-88
2022/11/05 22:43:44;;;;;;;4.00;1.70;;;;;;;;;;4994122;28;20034;-88
2022/11/05 22:46:13;;;;;;;3.63;1.80;;;;;;;;;;4994298;28;20030;-89
2022/11/05 22:48:39;;;;;;;2.58;1.60;;;;;;;;;;4976629;28;20037;-90
2022/11/05 22:51:08;;;;;;;1.70;1.20;;;;;;;;;;4970551;28;20035;-86
